Time;durP1;ratioP1;P1;durP2;ratioP2;P2;SDS_P1;SDS_P2;PMS_P1;PMS_P2;Temp;Humidity;BMP_temperature;BMP_pressure;BME280_temperature;BME280_humidity;BME280_pressure;Samples;Min_cycle;Max_cycle;Signal;HPM_P1;HPM_P2
2022/02/24 00:00:42;;;;;;;15.63;8.75;;;12.40;47.10;;;;;;5019190;28;20026;-85
2022/02/24 00:03:08;;;;;;;14.75;8.38;;;12.40;47.10;;;;;;5019023;28;20130;-90
2022/02/24 00:05:33;;;;;;;19.08;9.15;;;12.30;47.00;;;;;;5021602;28;20111;-78
2022/02/24 00:07:59;;;;;;;16.77;9.15;;;12.40;47.10;;;;;;5019631;28;20033;-88
2022/02/24 00:10:25;;;;;;;16.40;8.93;;;12.30;47.50;;;;;;5019761;28;20022;-88
2022/02/24 00:12:51;;;;;;;12.85;9.00;;;12.30;47.10;;;;;;5018502;28;20030;-85
2022/02/24 00:15:17;;;;;;;17.73;8.95;;;12.30;47.10;;;;;;5020987;28;20427;-85
2022/02/24 00:17:44;;;;;;;17.05;9.35;;;12.30;47.20;;;;;;5020301;28;20026;-92
2022/02/24 00:20:15;;;;;;;17.90;9.68;;;12.30;47.40;;;;;;5021607;28;20042;-72
2022/02/24 00:22:43;;;;;;;14.82;9.38;;;12.20;47.50;;;;;;5022210;28;20033;-82
2022/02/24 00:25:10;;;;;;;13.48;8.88;;;12.20;47.60;;;;;;5004755;28;20041;-76
2022/02/24 00:27:40;;;;;;;18.48;9.18;;;12.10;48.40;;;;;;5022118;28;20032;-85
2022/02/24 00:30:08;;;;;;;19.27;9.52;;;12.10;47.80;;;;;;5002873;28;20117;-90
2022/02/24 00:32:33;;;;;;;14.95;9.20;;;12.10;47.90;;;;;;5004133;28;20037;-74
2022/02/24 00:34:59;;;;;;;18.88;8.85;;;12.00;47.70;;;;;;5022868;28;20387;-74
2022/02/24 00:37:25;;;;;;;15.32;9.20;;;12.00;47.90;;;;;;5028209;28;20076;-66
2022/02/24 00:39:51;;;;;;;14.50;8.80;;;12.00;47.80;;;;;;5026335;28;20104;-66
2022/02/24 00:42:17;;;;;;;16.90;8.45;;;12.00;47.90;;;;;;5033123;28;20025;-66
2022/02/24 00:44:43;;;;;;;15.07;8.68;;;12.00;48.20;;;;;;5030748;28;20046;-77
2022/02/24 00:47:23;;;;;;;13.07;8.45;;;12.00;48.30;;;;;;5028084;28;20073;-77
2022/02/24 00:49:49;;;;;;;12.80;7.38;;;12.00;47.80;;;;;;5028090;28;20026;-80
2022/02/24 00:52:16;;;;;;;12.23;6.78;;;12.00;47.60;;;;;;5029458;28;20157;-83
2022/02/24 00:54:48;;;;;;;10.82;6.25;;;12.00;47.70;;;;;;5027860;28;20041;-83
2022/02/24 00:57:14;;;;;;;12.88;7.53;;;11.90;47.50;;;;;;5007324;28;20085;-81
2022/02/24 00:59:39;;;;;;;15.23;9.15;;;11.90;46.90;;;;;;5024267;28;20096;-83
2022/02/24 01:02:05;;;;;;;19.52;11.02;;;11.90;47.30;;;;;;5025304;28;20037;-86
2022/02/24 01:04:31;;;;;;;19.35;14.10;;;11.80;47.50;;;;;;5023665;28;20471;-86
2022/02/24 01:06:57;;;;;;;25.00;15.73;;;11.80;48.00;;;;;;5023755;28;20431;-84
2022/02/24 01:09:34;;;;;;;27.33;16.63;;;11.80;48.40;;;;;;5022546;28;20029;-87
2022/02/24 01:12:06;;;;;;;25.33;14.80;;;11.80;49.60;;;;;;5023026;28;20152;-75
2022/02/24 01:14:32;;;;;;;26.17;15.23;;;11.70;49.30;;;;;;5023310;28;20030;-86
2022/02/24 01:16:57;;;;;;;26.58;14.60;;;11.70;49.00;;;;;;5022322;28;20025;-88
2022/02/24 01:19:23;;;;;;;25.92;12.48;;;11.70;49.30;;;;;;5024877;28;20029;-66
2022/02/24 01:21:49;;;;;;;16.75;11.13;;;11.60;49.20;;;;;;5031261;28;20022;-68
2022/02/24 01:24:16;;;;;;;16.42;10.52;;;11.50;48.70;;;;;;5034500;28;20029;-67
2022/02/24 01:26:44;;;;;;;20.38;11.25;;;11.50;49.80;;;;;;5034467;28;20041;-82
2022/02/24 01:29:10;;;;;;;16.92;9.55;;;11.60;49.90;;;;;;5024288;28;20026;-86
2022/02/24 01:31:35;;;;;;;16.13;9.90;;;11.60;48.80;;;;;;5024432;28;20040;-85
2022/02/24 01:34:02;;;;;;;17.10;8.73;;;11.60;48.80;;;;;;5023897;28;20030;-76
2022/02/24 01:36:29;;;;;;;16.60;9.30;;;11.60;48.70;;;;;;5023770;28;20093;-85
2022/02/24 01:38:55;;;;;;;14.25;8.32;;;11.50;48.50;;;;;;5022925;28;20030;-86
2022/02/24 01:41:21;;;;;;;13.68;7.93;;;11.50;48.60;;;;;;5025136;28;20033;-86
2022/02/24 01:43:48;;;;;;;13.30;8.15;;;11.50;48.50;;;;;;5003493;28;20123;-86
2022/02/24 01:46:20;;;;;;;15.63;7.50;;;11.40;48.20;;;;;;5004511;28;20054;-90
2022/02/24 01:48:46;;;;;;;12.27;7.07;;;11.50;49.00;;;;;;5013778;28;20078;-84
2022/02/24 01:51:12;;;;;;;12.48;7.20;;;11.40;47.90;;;;;;5012736;28;20037;-83
2022/02/24 01:53:38;;;;;;;11.45;7.05;;;11.40;47.80;;;;;;5012099;28;20027;-78
2022/02/24 01:56:06;;;;;;;14.10;7.65;;;11.40;47.60;;;;;;5012914;28;20050;-80
2022/02/24 01:58:33;;;;;;;12.32;7.57;;;11.40;48.00;;;;;;5011433;28;20049;-91
2022/02/24 02:01:00;;;;;;;15.77;7.90;;;11.40;48.70;;;;;;5002086;28;20089;-84
2022/02/24 02:03:26;;;;;;;11.02;6.75;;;11.40;48.00;;;;;;5002294;28;20050;-86
2022/02/24 02:05:52;;;;;;;12.13;7.07;;;11.40;48.00;;;;;;5010931;28;20053;-68
2022/02/24 02:08:18;;;;;;;11.40;7.53;;;11.50;48.20;;;;;;5015065;28;20026;-66
2022/02/24 02:10:43;;;;;;;14.20;8.30;;;11.40;48.10;;;;;;5014648;28;20034;-70
2022/02/24 02:13:09;;;;;;;18.67;9.23;;;11.40;48.00;;;;;;5016019;28;20023;-65
2022/02/24 02:15:35;;;;;;;14.43;7.93;;;11.40;47.90;;;;;;5016069;28;20026;-82
2022/02/24 02:18:02;;;;;;;16.58;8.48;;;11.30;48.10;;;;;;5008595;28;20034;-82
2022/02/24 02:20:29;;;;;;;12.68;8.13;;;11.30;49.50;;;;;;5006649;28;20027;-86
2022/02/24 02:22:59;;;;;;;14.00;8.13;;;11.20;49.30;;;;;;5002028;28;20023;-91
2022/02/24 02:25:24;;;;;;;13.60;7.57;;;11.20;49.50;;;;;;5000354;28;20105;-86
2022/02/24 02:27:53;;;;;;;14.35;7.95;;;11.20;48.70;;;;;;5000417;28;20026;-80
2022/02/24 02:30:19;;;;;;;14.50;8.65;;;11.20;48.70;;;;;;5003060;28;20026;-91
2022/02/24 02:32:48;;;;;;;14.45;8.15;;;11.20;48.60;;;;;;4998931;28;20092;-84
2022/02/24 02:35:17;;;;;;;14.73;7.72;;;11.20;49.50;;;;;;4998621;28;20031;-85
2022/02/24 02:37:43;;;;;;;12.07;7.78;;;11.20;49.30;;;;;;4999676;28;20019;-85
2022/02/24 02:40:11;;;;;;;13.27;8.30;;;11.20;48.60;;;;;;4997744;28;20049;-85
2022/02/24 02:42:38;;;;;;;13.45;7.55;;;11.10;48.50;;;;;;4996283;28;20479;-66
2022/02/24 02:45:07;;;;;;;12.52;7.53;;;11.10;48.70;;;;;;5011340;28;20470;-66
2022/02/24 02:47:34;;;;;;;14.95;7.30;;;11.10;49.20;;;;;;5014990;28;20034;-69
2022/02/24 02:50:00;;;;;;;12.90;7.32;;;11.10;48.90;;;;;;5014207;28;20371;-65
2022/02/24 02:52:29;;;;;;;15.23;7.60;;;11.00;48.80;;;;;;4997225;28;20105;-69
2022/02/24 02:55:21;;;;;;;11.55;7.53;;;11.00;49.50;;;;;;5013506;28;20508;-65
2022/02/24 02:57:47;;;;;;;13.95;7.75;;;10.90;49.70;;;;;;4998491;28;20040;-70
2022/02/24 03:00:15;;;;;;;10.80;6.93;;;10.90;48.90;;;;;;4996895;28;20163;-69
2022/02/24 03:02:42;;;;;;;13.30;7.50;;;10.80;49.00;;;;;;5014660;28;20076;-67
2022/02/24 03:05:10;;;;;;;11.80;7.80;;;10.80;49.00;;;;;;4997119;28;20034;-66
2022/02/24 03:07:37;;;;;;;14.93;7.00;;;10.80;49.50;;;;;;5014588;28;20026;-69
2022/02/24 03:10:07;;;;;;;11.88;7.55;;;10.80;49.70;;;;;;5014841;28;20026;-75
2022/02/24 03:12:41;;;;;;;12.93;7.93;;;10.90;49.80;;;;;;4998050;28;20030;-66
2022/02/24 03:15:13;;;;;;;12.57;7.72;;;10.80;49.80;;;;;;5012707;28;20042;-66
2022/02/24 03:17:43;;;;;;;15.10;7.82;;;10.80;50.20;;;;;;5009839;28;20475;-64
2022/02/24 03:20:15;;;;;;;12.68;6.90;;;10.80;50.40;;;;;;5014511;28;20368;-79
2022/02/24 03:22:43;;;;;;;13.32;7.45;;;10.80;50.10;;;;;;5014721;28;20491;-73
2022/02/24 03:25:19;;;;;;;11.43;7.35;;;10.70;50.40;;;;;;5015333;28;20044;-65
2022/02/24 03:27:46;;;;;;;13.15;7.55;;;10.70;50.40;;;;;;5015223;28;20049;-66
2022/02/24 03:30:19;;;;;;;12.05;7.32;;;10.60;50.50;;;;;;5016169;28;20048;-65
2022/02/24 03:32:53;;;;;;;11.13;7.20;;;10.60;50.60;;;;;;5011919;28;20545;-74
2022/02/24 03:35:26;;;;;;;14.88;7.15;;;10.60;50.40;;;;;;5014958;28;20026;-66
2022/02/24 03:38:01;;;;;;;14.38;7.60;;;10.70;50.70;;;;;;5013405;28;20042;-68
2022/02/24 03:40:27;;;;;;;13.55;7.22;;;10.60;50.80;;;;;;5016326;28;20057;-66
2022/02/24 03:42:53;;;;;;;12.82;7.50;;;10.60;51.20;;;;;;4999165;28;20036;-65
2022/02/24 03:45:22;;;;;;;11.00;7.00;;;10.50;50.40;;;;;;5016192;28;20053;-66
2022/02/24 03:47:48;;;;;;;10.40;6.53;;;10.50;51.00;;;;;;5015694;28;20018;-66
2022/02/24 03:50:16;;;;;;;11.68;7.18;;;10.40;50.80;;;;;;5015664;28;20099;-65
2022/02/24 03:52:45;;;;;;;13.07;7.70;;;10.50;50.80;;;;;;5015505;28;20022;-66
2022/02/24 03:55:12;;;;;;;13.75;7.38;;;10.40;50.80;;;;;;5016071;28;20022;-64
2022/02/24 03:57:38;;;;;;;10.93;6.70;;;10.40;50.70;;;;;;5016145;28;20034;-65
2022/02/24 04:00:07;;;;;;;9.48;6.10;;;10.40;50.80;;;;;;5015768;28;20026;-67
2022/02/24 04:02:32;;;;;;;11.70;6.78;;;10.40;50.60;;;;;;5015161;28;20037;-66
2022/02/24 04:05:06;;;;;;;13.75;6.25;;;10.40;50.60;;;;;;5015233;28;20026;-65
2022/02/24 04:07:35;;;;;;;10.00;6.40;;;10.30;50.40;;;;;;5013357;28;20104;-65
2022/02/24 04:10:02;;;;;;;9.85;6.00;;;10.30;50.40;;;;;;5005188;28;20034;-68
2022/02/24 04:12:28;;;;;;;12.82;6.75;;;10.30;50.60;;;;;;5015564;28;20038;-65
2022/02/24 04:15:00;;;;;;;10.15;6.28;;;10.20;50.40;;;;;;5015791;28;20036;-69
2022/02/24 04:17:29;;;;;;;11.27;6.10;;;10.20;50.10;;;;;;5015287;28;20041;-66
2022/02/24 04:19:55;;;;;;;8.73;5.35;;;10.10;50.00;;;;;;5013991;28;20025;-70
2022/02/24 04:22:22;;;;;;;8.45;5.18;;;10.10;50.10;;;;;;5013502;28;20079;-66
2022/02/24 04:24:48;;;;;;;10.00;5.22;;;10.20;49.90;;;;;;5015248;28;20112;-69
2022/02/24 04:27:13;;;;;;;8.18;4.50;;;10.10;49.30;;;;;;5016291;28;20034;-65
2022/02/24 04:29:41;;;;;;;10.38;5.22;;;10.10;49.50;;;;;;5016450;28;20111;-67
2022/02/24 04:32:10;;;;;;;8.98;4.50;;;10.00;49.20;;;;;;5014025;28;20165;-66
2022/02/24 04:34:36;;;;;;;8.05;4.57;;;10.10;49.40;;;;;;4997399;28;20084;-66
2022/02/24 04:37:03;;;;;;;7.78;4.53;;;10.10;49.20;;;;;;5011342;28;20042;-66
2022/02/24 04:39:29;;;;;;;12.55;5.20;;;10.10;49.30;;;;;;5013614;28;20088;-76
2022/02/24 04:41:55;;;;;;;9.55;5.15;;;10.00;48.90;;;;;;5011908;28;20038;-68
2022/02/24 04:44:24;;;;;;;7.45;4.45;;;10.00;48.90;;;;;;5014173;28;20096;-66
2022/02/24 04:46:51;;;;;;;10.85;5.22;;;9.90;49.90;;;;;;5017886;28;20479;-66
2022/02/24 04:49:22;;;;;;;10.88;5.47;;;9.90;50.30;;;;;;4999117;28;20045;-66
2022/02/24 04:52:05;;;;;;;9.52;5.82;;;9.80;50.50;;;;;;5016548;28;20037;-72
2022/02/24 04:54:32;;;;;;;8.95;5.88;;;9.80;50.50;;;;;;5015665;28;20036;-74
2022/02/24 04:56:58;;;;;;;9.25;5.53;;;9.90;50.80;;;;;;5014520;28;20022;-67
2022/02/24 04:59:24;;;;;;;9.30;5.80;;;9.90;51.20;;;;;;5014279;28;20478;-72
2022/02/24 05:01:51;;;;;;;11.07;7.00;;;9.80;51.20;;;;;;5012827;28;20483;-74
2022/02/24 05:04:17;;;;;;;12.27;6.40;;;9.80;51.20;;;;;;5013695;28;20053;-70
2022/02/24 05:06:44;;;;;;;10.50;6.28;;;9.80;51.30;;;;;;5013978;28;20030;-67
2022/02/24 05:09:10;;;;;;;13.48;7.25;;;9.80;52.10;;;;;;5014767;28;20491;-66
2022/02/24 05:11:36;;;;;;;12.88;7.53;;;9.70;52.40;;;;;;5017153;28;20033;-71
2022/02/24 05:14:08;;;;;;;13.02;7.38;;;9.70;52.80;;;;;;5017133;28;20038;-65
2022/02/24 05:16:34;;;;;;;14.52;7.68;;;9.70;53.10;;;;;;5016900;28;20587;-66
2022/02/24 05:19:00;;;;;;;14.98;8.27;;;9.60;53.30;;;;;;5000970;28;20057;-65
2022/02/24 05:21:30;;;;;;;11.27;7.65;;;9.60;53.80;;;;;;5020211;28;20483;-66
2022/02/24 05:23:56;;;;;;;14.98;8.50;;;9.50;53.90;;;;;;5020094;28;20026;-65
2022/02/24 05:26:24;;;;;;;16.00;8.80;;;9.50;54.20;;;;;;5019394;28;20125;-64
2022/02/24 05:28:49;;;;;;;14.23;8.45;;;9.50;54.20;;;;;;5018464;28;20053;-67
2022/02/24 05:31:15;;;;;;;12.60;7.20;;;9.50;54.20;;;;;;5018613;28;20113;-64
2022/02/24 05:33:45;;;;;;;17.52;7.47;;;9.40;54.30;;;;;;4983851;28;20053;-66
2022/02/24 05:36:12;;;;;;;14.25;8.15;;;9.40;54.40;;;;;;5000599;28;20487;-65
2022/02/24 05:38:38;;;;;;;14.88;7.30;;;9.40;54.20;;;;;;5017536;28;20033;-72
2022/02/24 05:41:06;;;;;;;13.75;7.55;;;9.40;54.40;;;;;;5017351;28;20026;-66
2022/02/24 05:43:32;;;;;;;13.02;7.47;;;9.40;54.60;;;;;;4994650;28;20511;-67
2022/02/24 05:46:01;;;;;;;16.20;7.55;;;9.30;54.70;;;;;;4998405;28;20038;-67
2022/02/24 05:48:29;;;;;;;22.27;7.32;;;9.30;54.80;;;;;;5010215;28;20030;-66
2022/02/24 05:50:55;;;;;;;14.95;7.65;;;9.20;54.90;;;;;;5005184;28;20030;-81
2022/02/24 05:53:21;;;;;;;13.50;6.93;;;9.20;55.20;;;;;;4996568;28;20025;-73
2022/02/24 05:55:47;;;;;;;13.45;7.00;;;9.30;55.00;;;;;;4996200;28;20026;-71
2022/02/24 05:58:12;;;;;;;12.30;7.55;;;9.30;54.60;;;;;;4996748;28;20056;-75
2022/02/24 06:00:38;;;;;;;17.33;7.50;;;9.20;54.60;;;;;;4996273;28;20030;-80
2022/02/24 06:03:03;;;;;;;12.07;7.15;;;9.20;54.70;;;;;;4995779;28;20030;-79
2022/02/24 06:05:29;;;;;;;13.68;7.03;;;9.20;54.60;;;;;;4995692;28;20034;-80
2022/02/24 06:07:55;;;;;;;14.88;7.57;;;9.10;54.60;;;;;;4995571;28;20022;-81
2022/02/24 06:10:21;;;;;;;15.50;6.97;;;9.10;54.80;;;;;;4996095;28;20026;-80
2022/02/24 06:12:49;;;;;;;12.50;7.03;;;9.20;55.00;;;;;;4994605;28;20034;-73
2022/02/24 06:15:19;;;;;;;15.80;7.32;;;9.20;55.00;;;;;;4994440;28;20022;-71
2022/02/24 06:17:45;;;;;;;14.90;7.45;;;9.30;54.90;;;;;;4994199;28;20502;-77
2022/02/24 06:20:15;;;;;;;14.85;7.15;;;9.30;55.10;;;;;;4995330;28;20027;-77
2022/02/24 06:22:41;;;;;;;15.15;7.45;;;9.40;54.80;;;;;;4995362;28;20110;-75
2022/02/24 06:25:07;;;;;;;12.32;7.28;;;9.40;54.60;;;;;;4995221;28;20121;-77
2022/02/24 06:27:34;;;;;;;12.77;6.90;;;9.50;54.60;;;;;;4995722;28;20022;-80
2022/02/24 06:30:07;;;;;;;12.13;7.28;;;9.50;54.10;;;;;;4995852;28;20033;-76
2022/02/24 06:32:37;;;;;;;11.52;6.85;;;9.40;54.60;;;;;;4983269;28;20563;-77
2022/02/24 06:35:14;;;;;;;13.45;6.88;;;9.40;54.20;;;;;;4981795;28;20043;-75
2022/02/24 06:38:01;;;;;;;11.48;6.10;;;9.40;54.10;;;;;;4976012;28;20066;-74
2022/02/24 06:40:27;;;;;;;15.25;6.95;;;9.50;54.00;;;;;;4975509;28;20498;-77
2022/02/24 06:42:54;;;;;;;12.65;6.50;;;9.60;53.70;;;;;;4976110;28;20054;-79
2022/02/24 06:45:26;;;;;;;10.80;5.97;;;9.60;53.30;;;;;;4993911;28;20052;-73
2022/02/24 06:47:52;;;;;;;11.43;5.68;;;9.70;53.50;;;;;;4994587;28;20468;-74
2022/02/24 06:50:19;;;;;;;14.30;5.88;;;9.80;53.10;;;;;;4995889;28;20026;-69
2022/02/24 06:52:46;;;;;;;11.23;5.15;;;9.90;52.90;;;;;;5010235;28;20070;-69
2022/02/24 06:55:13;;;;;;;10.13;5.05;;;10.00;51.40;;;;;;4994714;28;20027;-71
2022/02/24 06:57:43;;;;;;;10.57;5.28;;;10.10;51.30;;;;;;5001667;28;20065;-72
2022/02/24 07:00:12;;;;;;;12.88;5.82;;;10.20;50.70;;;;;;4974624;28;20031;-71
2022/02/24 07:02:40;;;;;;;16.63;5.63;;;10.20;50.20;;;;;;4974784;28;20106;-70
2022/02/24 07:05:08;;;;;;;12.48;5.20;;;10.30;50.20;;;;;;4996305;28;20045;-71
2022/02/24 07:07:34;;;;;;;11.02;4.75;;;10.40;49.80;;;;;;5013460;28;20377;-71
2022/02/24 07:10:12;;;;;;;9.40;4.63;;;10.50;49.60;;;;;;5008297;28;20147;-71
2022/02/24 07:12:39;;;;;;;14.65;7.55;;;10.60;48.90;;;;;;5004446;28;20068;-71
2022/02/24 07:15:05;;;;;;;11.02;6.68;;;10.60;48.40;;;;;;5013329;28;20156;-72
2022/02/24 07:17:31;;;;;;;14.88;5.32;;;10.80;48.50;;;;;;5013271;28;20022;-70
2022/02/24 07:19:58;;;;;;;9.50;4.93;;;10.90;48.00;;;;;;5004384;28;20085;-70
2022/02/24 07:22:25;;;;;;;8.27;4.63;;;11.00;47.90;;;;;;5010269;28;20101;-71
2022/02/24 07:24:53;;;;;;;11.27;5.28;;;11.00;47.00;;;;;;5013405;28;20485;-74
2022/02/24 07:27:19;;;;;;;11.38;5.20;;;11.20;47.10;;;;;;4995487;28;20377;-71
2022/02/24 07:29:45;;;;;;;11.10;5.30;;;11.20;46.20;;;;;;4995537;28;20121;-71
2022/02/24 07:32:13;;;;;;;13.05;5.35;;;11.30;46.20;;;;;;5012913;28;20033;-74
2022/02/24 07:34:39;;;;;;;11.85;4.70;;;11.40;46.90;;;;;;5012922;28;20479;-69
2022/02/24 07:37:05;;;;;;;13.75;5.30;;;11.50;45.70;;;;;;5013053;28;20105;-73
2022/02/24 07:39:38;;;;;;;13.68;5.72;;;11.60;46.30;;;;;;5012715;28;20021;-70
2022/02/24 07:42:08;;;;;;;15.52;4.97;;;11.70;46.90;;;;;;4979802;28;20120;-73
2022/02/24 07:44:34;;;;;;;19.27;11.57;;;11.80;45.20;;;;;;4992676;28;20073;-72
2022/02/24 07:47:01;;;;;;;18.63;11.52;;;11.90;45.00;;;;;;4992052;28;20480;-71
2022/02/24 07:49:26;;;;;;;13.15;5.72;;;11.90;45.10;;;;;;4993860;28;20309;-72
2022/02/24 07:51:52;;;;;;;15.80;5.50;;;12.10;45.00;;;;;;4975499;28;20038;-73
2022/02/24 07:54:22;;;;;;;15.52;5.82;;;12.10;44.40;;;;;;4991679;28;20030;-73
2022/02/24 07:56:50;;;;;;;16.05;5.20;;;12.20;44.40;;;;;;4993138;28;20050;-72
2022/02/24 07:59:18;;;;;;;13.10;5.85;;;12.30;44.40;;;;;;4993264;28;20054;-72
2022/02/24 08:01:46;;;;;;;12.95;5.88;;;12.40;44.30;;;;;;4993532;28;20026;-72
2022/02/24 08:04:13;;;;;;;15.20;5.10;;;12.50;45.00;;;;;;4975552;28;20363;-70
2022/02/24 08:06:39;;;;;;;15.02;5.95;;;12.50;44.80;;;;;;4993090;28;20479;-74
2022/02/24 08:09:06;;;;;;;10.77;5.75;;;12.60;44.60;;;;;;4993090;28;20025;-71
2022/02/24 08:11:32;;;;;;;13.05;5.93;;;12.70;44.20;;;;;;4993642;28;20053;-72
2022/02/24 08:13:58;;;;;;;11.98;5.80;;;12.70;44.20;;;;;;4993086;28;20057;-74
2022/02/24 08:16:23;;;;;;;10.35;6.05;;;12.70;44.30;;;;;;4993180;28;20065;-73
2022/02/24 08:18:49;;;;;;;11.65;5.47;;;12.70;44.20;;;;;;4992925;28;20104;-73
2022/02/24 08:21:16;;;;;;;18.38;6.82;;;12.70;44.50;;;;;;4975798;28;20034;-72
2022/02/24 08:23:42;;;;;;;15.38;6.50;;;12.70;44.30;;;;;;4992918;28;20049;-74
2022/02/24 08:26:08;;;;;;;11.25;5.93;;;12.80;44.30;;;;;;4993098;28;20117;-72
2022/02/24 08:28:34;;;;;;;13.55;5.95;;;12.80;45.10;;;;;;4992778;28;20390;-73
2022/02/24 08:30:59;;;;;;;15.07;6.80;;;12.90;44.30;;;;;;4992818;28;20033;-73
2022/02/24 08:33:25;;;;;;;13.30;5.20;;;12.90;44.70;;;;;;4992975;28;20113;-72
2022/02/24 08:35:51;;;;;;;12.35;5.47;;;12.90;44.20;;;;;;4993251;28;20464;-73
2022/02/24 08:38:18;;;;;;;18.40;8.95;;;12.90;44.10;;;;;;4993087;28;20042;-74
2022/02/24 08:40:44;;;;;;;25.08;14.77;;;13.00;44.30;;;;;;4993119;28;20072;-71
2022/02/24 08:43:10;;;;;;;22.70;9.48;;;13.00;44.20;;;;;;4993028;28;20026;-75
2022/02/24 08:45:36;;;;;;;16.80;6.63;;;13.00;44.10;;;;;;4975426;28;20038;-71
2022/02/24 08:48:03;;;;;;;15.35;6.13;;;13.10;44.20;;;;;;4992870;28;20030;-74
2022/02/24 08:50:29;;;;;;;13.23;5.95;;;13.10;43.80;;;;;;4992566;28;20476;-72
2022/02/24 08:52:56;;;;;;;20.80;6.53;;;13.10;43.90;;;;;;4994294;28;20030;-72
2022/02/24 08:55:22;;;;;;;14.23;5.80;;;13.20;44.10;;;;;;4996618;28;20037;-75
2022/02/24 08:57:47;;;;;;;18.10;6.22;;;13.20;44.10;;;;;;4996767;28;20027;-71
2022/02/24 09:00:14;;;;;;;15.00;5.90;;;13.20;43.90;;;;;;4996550;28;20037;-72
2022/02/24 09:02:40;;;;;;;18.67;6.50;;;13.30;43.70;;;;;;4996845;28;20031;-73
2022/02/24 09:05:06;;;;;;;17.52;6.72;;;13.40;43.90;;;;;;4978796;28;20042;-72
2022/02/24 09:07:33;;;;;;;17.95;8.02;;;13.40;43.70;;;;;;4996420;28;20066;-71
2022/02/24 09:10:00;;;;;;;18.33;7.43;;;13.50;43.80;;;;;;4996338;28;20022;-72
2022/02/24 09:12:25;;;;;;;10.98;6.43;;;13.60;43.80;;;;;;4996616;28;20058;-71
2022/02/24 09:14:52;;;;;;;14.68;5.65;;;13.60;43.80;;;;;;4996788;28;20065;-74
2022/02/24 09:17:19;;;;;;;12.15;5.47;;;13.70;43.80;;;;;;4995724;28;20614;-71
2022/02/24 09:19:45;;;;;;;13.10;5.45;;;13.80;43.60;;;;;;4996223;28;20463;-72
2022/02/24 09:22:13;;;;;;;15.57;6.15;;;13.80;43.90;;;;;;4996393;28;20026;-75
2022/02/24 09:24:40;;;;;;;15.60;5.78;;;13.90;43.60;;;;;;4988549;28;20023;-71
2022/02/24 09:27:06;;;;;;;12.48;6.05;;;14.00;43.60;;;;;;5008634;28;20037;-76
2022/02/24 09:29:33;;;;;;;16.60;5.95;;;14.10;43.80;;;;;;5000214;28;20115;-71
2022/02/24 09:32:00;;;;;;;12.30;5.68;;;14.10;43.70;;;;;;4996156;28;20042;-72
2022/02/24 09:34:25;;;;;;;10.40;5.63;;;14.20;43.70;;;;;;4978616;28;20109;-72
2022/02/24 09:36:53;;;;;;;12.15;5.72;;;14.30;43.80;;;;;;4996183;28;20102;-72
2022/02/24 09:39:18;;;;;;;10.80;5.30;;;14.40;43.00;;;;;;4996387;28;20569;-71
2022/02/24 09:41:45;;;;;;;10.57;5.75;;;14.50;43.70;;;;;;4995727;28;20042;-77
2022/02/24 09:44:11;;;;;;;14.52;6.50;;;14.60;44.00;;;;;;4995784;28;20124;-79
2022/02/24 09:46:40;;;;;;;13.48;6.38;;;14.70;44.00;;;;;;4995966;28;20492;-74
2022/02/24 09:49:07;;;;;;;13.23;5.80;;;14.90;44.50;;;;;;4995868;28;20026;-77
2022/02/24 09:51:33;;;;;;;15.25;5.05;;;14.90;44.40;;;;;;4996082;28;20041;-78
2022/02/24 09:54:00;;;;;;;9.20;5.30;;;15.10;44.60;;;;;;4995933;28;20026;-75
2022/02/24 09:56:29;;;;;;;13.07;4.57;;;15.20;44.80;;;;;;4995722;28;20033;-79
2022/02/24 09:58:56;;;;;;;11.88;4.90;;;15.40;45.30;;;;;;4995313;28;20383;-71
2022/02/24 10:01:22;;;;;;;12.18;4.60;;;15.50;46.00;;;;;;4995585;28;20117;-75
2022/02/24 10:03:57;;;;;;;12.20;4.70;;;15.70;46.30;;;;;;4994955;28;20034;-79
2022/02/24 10:06:43;;;;;;;10.63;4.82;;;15.80;46.50;;;;;;4995160;28;20048;-76
2022/02/24 10:09:11;;;;;;;10.95;4.47;;;16.00;46.60;;;;;;4995257;28;20062;-79
2022/02/24 10:11:41;;;;;;;14.10;5.65;;;16.10;46.70;;;;;;4995435;28;20042;-75
2022/02/24 10:14:12;;;;;;;14.02;5.38;;;16.20;46.80;;;;;;4995499;28;20105;-75
2022/02/24 10:16:59;;;;;;;9.18;4.63;;;16.30;47.20;;;;;;4995778;28;20361;-75
2022/02/24 10:19:40;;;;;;;9.05;4.30;;;16.40;47.30;;;;;;4994982;28;20490;-79
2022/02/24 10:22:11;;;;;;;17.20;6.93;;;16.60;46.10;;;;;;4995133;28;20101;-77
2022/02/24 10:24:58;;;;;;;8.30;4.10;;;16.70;47.70;;;;;;4996091;28;20048;-79
2022/02/24 10:27:35;;;;;;;10.32;4.32;;;16.80;47.60;;;;;;4994454;28;20113;-78
2022/02/24 10:30:16;;;;;;;8.20;3.50;;;17.00;46.20;;;;;;4995632;28;20026;-79
2022/02/24 10:32:47;;;;;;;15.65;3.05;;;17.10;47.70;;;;;;4995357;28;20030;-77
2022/02/24 10:35:19;;;;;;;8.40;2.83;;;17.30;48.10;;;;;;4994956;28;20077;-79
2022/02/24 10:37:51;;;;;;;6.63;2.30;;;17.40;46.30;;;;;;4994642;28;20069;-78
2022/02/24 10:40:17;;;;;;;5.85;2.05;;;17.50;47.80;;;;;;4994799;28;20037;-79
2022/02/24 10:42:42;;;;;;;6.35;2.10;;;17.50;47.60;;;;;;4994702;28;20022;-76
2022/02/24 10:45:08;;;;;;;5.85;2.10;;;17.60;47.60;;;;;;4994470;28;20100;-79
2022/02/24 10:47:34;;;;;;;7.85;2.25;;;17.60;47.20;;;;;;4994833;28;20484;-76
2022/02/24 10:50:00;;;;;;;8.60;2.40;;;17.70;46.90;;;;;;4994546;28;20034;-77
2022/02/24 10:52:26;;;;;;;6.55;1.67;;;17.80;46.70;;;;;;4994718;28;20069;-79
2022/02/24 10:55:09;;;;;;;9.15;2.78;;;17.80;46.50;;;;;;4994763;28;20030;-80
2022/02/24 10:57:35;;;;;;;6.03;2.00;;;17.90;46.90;;;;;;4994763;28;20149;-79
2022/02/24 11:00:01;;;;;;;17.23;6.72;;;18.00;46.70;;;;;;4994492;28;20010;-80
2022/02/24 11:02:27;;;;;;;10.77;6.35;;;18.00;46.50;;;;;;4995052;28;20037;-78
2022/02/24 11:04:55;;;;;;;11.82;7.40;;;18.10;46.40;;;;;;4994442;28;20023;-82
2022/02/24 11:07:22;;;;;;;14.20;6.38;;;18.20;45.20;;;;;;4976776;28;20137;-77
2022/02/24 11:09:48;;;;;;;6.72;3.17;;;18.20;46.50;;;;;;4994508;28;20022;-73
2022/02/24 11:12:16;;;;;;;4.97;1.83;;;18.30;46.30;;;;;;4994589;28;20030;-75
2022/02/24 11:14:46;;;;;;;4.65;1.50;;;18.40;46.10;;;;;;4994429;28;20472;-72
2022/02/24 11:17:14;;;;;;;4.95;1.80;;;18.40;46.00;;;;;;4994320;28;20057;-76
2022/02/24 11:19:43;;;;;;;9.35;1.90;;;18.50;46.10;;;;;;4993815;28;20109;-72
2022/02/24 11:22:09;;;;;;;3.97;1.45;;;18.60;46.20;;;;;;4994333;28;20022;-75
2022/02/24 11:24:35;;;;;;;5.15;1.80;;;18.60;45.90;;;;;;4994258;28;20026;-74
2022/02/24 11:27:25;;;;;;;3.90;1.50;;;18.60;46.00;;;;;;4994001;28;20041;-76
2022/02/24 11:30:14;;;;;;;8.20;1.98;;;18.70;44.80;;;;;;4993859;28;20031;-72
2022/02/24 11:32:45;;;;;;;6.82;1.55;;;18.80;45.70;;;;;;4994166;28;20387;-74
2022/02/24 11:35:13;;;;;;;5.35;1.30;;;18.90;45.90;;;;;;4993390;28;20022;-72
2022/02/24 11:37:41;;;;;;;5.70;1.80;;;19.00;45.20;;;;;;4993966;28;20034;-75
2022/02/24 11:40:24;;;;;;;6.20;1.70;;;19.10;45.20;;;;;;4994016;28;20105;-74
2022/02/24 11:43:06;;;;;;;8.85;2.10;;;19.10;44.20;;;;;;4993390;28;20030;-71
2022/02/24 11:45:35;;;;;;;5.38;1.80;;;19.10;44.50;;;;;;4993860;28;20057;-74
2022/02/24 11:48:04;;;;;;;3.47;1.63;;;19.20;44.40;;;;;;4993674;28;20030;-76
2022/02/24 11:50:32;;;;;;;5.35;1.85;;;19.30;44.20;;;;;;4993822;28;20030;-74
2022/02/24 11:52:58;;;;;;;9.13;1.83;;;19.30;44.10;;;;;;4994151;28;20029;-74
2022/02/24 11:55:43;;;;;;;8.55;2.78;;;19.40;44.10;;;;;;4993643;28;20037;-73
2022/02/24 11:58:32;;;;;;;4.60;1.95;;;19.40;43.80;;;;;;4993757;28;20190;-76
2022/02/24 12:01:26;;;;;;;7.80;2.10;;;19.40;43.00;;;;;;4994291;28;20034;-77
2022/02/24 12:04:00;;;;;;;7.15;2.15;;;19.40;43.00;;;;;;4993929;28;20044;-72
2022/02/24 12:06:50;;;;;;;5.53;1.48;;;19.40;43.40;;;;;;4993750;28;20034;-73
2022/02/24 12:09:17;;;;;;;6.15;2.00;;;19.40;42.90;;;;;;4993770;28;20053;-75
2022/02/24 12:11:55;;;;;;;3.78;1.63;;;19.50;43.20;;;;;;4993781;28;20506;-76
2022/02/24 12:14:24;;;;;;;3.95;1.63;;;19.50;43.40;;;;;;4993246;28;20031;-70
2022/02/24 12:17:03;;;;;;;7.45;3.13;;;19.60;42.90;;;;;;4975725;28;20476;-69
2022/02/24 12:19:39;;;;;;;6.55;2.10;;;19.70;43.00;;;;;;4993253;28;20104;-72
2022/02/24 12:22:14;;;;;;;5.28;1.45;;;19.70;42.90;;;;;;4993366;28;20036;-77
2022/02/24 12:24:49;;;;;;;6.22;1.88;;;19.70;42.60;;;;;;4993390;28;20045;-76
2022/02/24 12:27:28;;;;;;;4.60;1.48;;;19.70;42.30;;;;;;4995810;28;20122;-73
2022/02/24 12:30:25;;;;;;;12.35;2.35;;;19.70;42.60;;;;;;4997667;28;20033;-72
2022/02/24 12:33:07;;;;;;;4.72;1.63;;;19.70;42.70;;;;;;4988061;28;20080;-73
2022/02/24 12:35:44;;;;;;;6.28;1.52;;;19.70;42.60;;;;;;4997332;28;20026;-72
2022/02/24 12:38:15;;;;;;;7.88;1.63;;;19.70;42.90;;;;;;4997203;28;20046;-72
2022/02/24 12:40:46;;;;;;;5.80;2.20;;;19.70;42.30;;;;;;4998076;28;20073;-75
2022/02/24 12:43:14;;;;;;;3.78;1.60;;;19.70;42.00;;;;;;5001189;28;20455;-77
2022/02/24 12:45:41;;;;;;;5.78;1.40;;;19.70;41.80;;;;;;5007541;28;20106;-76
2022/02/24 12:48:10;;;;;;;4.43;1.30;;;19.70;41.30;;;;;;5017725;28;20026;-77